Time;durP1;ratioP1;P1;durP2;ratioP2;P2;SDS_P1;SDS_P2;PMS_P1;PMS_P2;Temp;Humidity;BMP_temperature;BMP_pressure;BME280_temperature;BME280_humidity;BME280_pressure;Samples;Min_cycle;Max_cycle;Signal;HPM_P1;HPM_P2
2022/11/15 00:01:38;;;;;;;26.42;16.42;;;8.00;99.90;;;;;;4954633;28;20042;-88
2022/11/15 00:04:05;;;;;;;28.13;17.10;;;8.00;99.90;;;;;;4954888;28;20043;-87
2022/11/15 00:06:31;;;;;;;26.17;16.73;;;9.30;99.90;;;;;;4956288;28;20114;-88
2022/11/15 00:09:00;;;;;;;25.45;16.52;;;8.00;99.90;;;;;;4957615;28;20471;-89
2022/11/15 00:11:26;;;;;;;22.60;15.30;;;8.20;99.90;;;;;;4952995;28;20457;-88
2022/11/15 00:13:55;;;;;;;25.10;16.27;;;8.40;99.90;;;;;;4958482;28;20057;-88
2022/11/15 00:16:22;;;;;;;26.98;16.65;;;7.90;99.90;;;;;;4959326;28;20126;-86
2022/11/15 00:18:47;;;;;;;23.70;15.45;;;9.20;99.90;;;;;;4957148;28;20047;-86
2022/11/15 00:21:14;;;;;;;25.13;16.38;;;8.90;99.90;;;;;;4970717;28;20042;-87
2022/11/15 00:23:40;;;;;;;26.65;16.30;;;7.70;99.90;;;;;;4960901;28;20050;-87
2022/11/15 00:26:06;;;;;;;27.30;16.58;;;7.70;99.90;;;;;;4972812;28;20389;-87
2022/11/15 00:28:32;;;;;;;26.08;16.90;;;8.30;99.90;;;;;;4990537;28;20125;-86
2022/11/15 00:31:06;;;;;;;25.90;15.82;;;7.50;99.90;;;;;;4975744;28;20042;-88
2022/11/15 00:33:33;;;;;;;25.00;16.08;;;7.50;99.90;;;;;;4976759;28;20450;-87
2022/11/15 00:36:08;;;;;;;28.40;17.33;;;7.90;99.90;;;;;;4960110;28;20491;-88
2022/11/15 00:38:36;;;;;;;25.90;16.05;;;7.40;99.90;;;;;;4959501;28;20031;-88
2022/11/15 00:41:04;;;;;;;25.92;17.00;;;7.70;99.90;;;;;;4961033;28;20495;-88
2022/11/15 00:43:30;;;;;;;25.58;17.23;;;7.40;99.90;;;;;;4944481;28;20089;-88
2022/11/15 00:45:56;;;;;;;25.25;16.63;;;8.10;99.90;;;;;;4976376;28;20096;-86
2022/11/15 00:48:21;;;;;;;26.17;16.77;;;7.50;99.90;;;;;;4960048;28;20034;-89
2022/11/15 00:50:48;;;;;;;26.52;17.05;;;7.50;99.90;;;;;;4976762;28;20093;-85
2022/11/15 00:53:14;;;;;;;27.55;17.63;;;8.80;99.90;;;;;;4960316;28;20061;-87
2022/11/15 00:55:40;;;;;;;26.63;16.42;;;8.60;99.90;;;;;;4960021;28;20491;-87
2022/11/15 00:58:05;;;;;;;24.63;16.52;;;7.40;99.90;;;;;;4960864;28;20173;-87
2022/11/15 01:00:31;;;;;;;26.63;17.42;;;8.60;99.90;;;;;;4959804;28;20046;-87
2022/11/15 01:02:56;;;;;;;25.88;16.40;;;7.30;99.90;;;;;;4968150;28;20053;-87
2022/11/15 01:05:22;;;;;;;24.83;16.08;;;8.20;99.90;;;;;;4951346;28;20634;-86
2022/11/15 01:07:52;;;;;;;25.00;15.95;;;8.50;99.90;;;;;;4955736;28;20088;-87
2022/11/15 01:10:18;;;;;;;25.73;16.33;;;7.30;99.90;;;;;;4958851;28;20065;-87
2022/11/15 01:12:44;;;;;;;23.45;14.77;;;7.30;99.90;;;;;;4975627;28;20124;-88
2022/11/15 01:15:10;;;;;;;23.67;15.15;;;7.20;99.90;;;;;;4940493;28;20093;-87
2022/11/15 01:17:35;;;;;;;27.13;16.98;;;7.30;99.90;;;;;;4970551;28;20038;-87
2022/11/15 01:20:01;;;;;;;26.02;16.02;;;7.50;99.90;;;;;;4942746;28;20112;-87
2022/11/15 01:22:27;;;;;;;24.30;15.18;;;8.30;99.90;;;;;;4958728;28;20054;-88
2022/11/15 01:24:53;;;;;;;24.67;15.95;;;7.10;99.90;;;;;;4943881;28;20054;-87
2022/11/15 01:27:18;;;;;;;22.33;15.60;;;7.10;99.90;;;;;;4942688;28;20041;-88
2022/11/15 01:29:44;;;;;;;25.10;16.05;;;7.70;99.90;;;;;;4967701;28;20046;-89
2022/11/15 01:32:10;;;;;;;22.85;15.13;;;7.30;99.90;;;;;;4959489;28;20050;-87
2022/11/15 01:34:35;;;;;;;25.30;16.13;;;8.00;99.90;;;;;;4943446;28;20065;-87
2022/11/15 01:37:01;;;;;;;23.27;14.35;;;7.20;99.90;;;;;;4957858;28;20104;-86
2022/11/15 01:39:27;;;;;;;24.75;16.35;;;7.60;99.90;;;;;;4959536;28;20564;-87
2022/11/15 01:41:53;;;;;;;23.55;15.95;;;7.90;99.90;;;;;;4957352;28;20312;-87
2022/11/15 01:44:34;;;;;;;23.58;16.17;;;7.80;99.90;;;;;;4935462;28;20078;-86
2022/11/15 01:47:06;;;;;;;26.13;16.33;;;7.30;99.90;;;;;;4953012;28;20058;-87
2022/11/15 01:49:34;;;;;;;28.55;17.10;;;8.00;99.90;;;;;;4974999;28;20038;-87
2022/11/15 01:52:03;;;;;;;26.52;16.55;;;7.40;99.90;;;;;;4958572;28;20042;-88
2022/11/15 01:54:29;;;;;;;26.67;16.80;;;7.40;99.90;;;;;;4975133;28;20042;-88
2022/11/15 01:57:09;;;;;;;25.30;16.30;;;7.40;99.90;;;;;;4975144;28;20602;-88
2022/11/15 01:59:37;;;;;;;26.30;16.58;;;7.40;99.90;;;;;;4959279;28;20057;-87
2022/11/15 02:02:02;;;;;;;24.52;16.08;;;7.80;99.90;;;;;;4942436;28;20466;-87
2022/11/15 02:04:35;;;;;;;25.63;16.65;;;7.50;99.90;;;;;;4942965;28;20046;-88
2022/11/15 02:07:02;;;;;;;;;;;7.50;99.90;;;;;;4975601;28;20041;-87
2022/11/15 02:09:29;;;;;;;25.60;16.15;;;8.60;99.90;;;;;;4974533;28;20273;-88
2022/11/15 02:11:56;;;;;;;26.90;16.63;;;8.20;99.90;;;;;;4958613;28;20041;-88
2022/11/15 02:14:23;;;;;;;27.30;16.77;;;7.50;99.90;;;;;;4973471;28;20046;-87
2022/11/15 02:17:29;;;;;;;25.70;16.05;;;7.60;99.90;;;;;;4958429;28;20422;-87
2022/11/15 02:20:16;;;;;;;25.45;15.70;;;7.60;99.90;;;;;;4960626;28;20529;-87
2022/11/15 02:22:45;;;;;;;25.88;14.90;;;7.60;99.90;;;;;;4954558;28;20067;-87
2022/11/15 02:25:29;;;;;;;27.73;16.98;;;7.70;99.90;;;;;;4974197;28;20053;-87
2022/11/15 02:28:22;;;;;;;30.00;16.17;;;7.70;99.90;;;;;;4964130;28;20045;-88
2022/11/15 02:30:56;;;;;;;27.48;16.17;;;7.70;99.90;;;;;;4973052;28;20043;-87
2022/11/15 02:33:41;;;;;;;28.08;16.52;;;7.70;99.90;;;;;;4974853;28;20403;-87
2022/11/15 02:36:16;;;;;;;29.05;16.20;;;7.70;99.90;;;;;;4951445;28;20045;-87
2022/11/15 02:38:53;;;;;;;27.85;16.50;;;8.40;99.90;;;;;;4956835;28;20084;-87
2022/11/15 02:41:39;;;;;;;28.05;16.13;;;7.70;99.90;;;;;;4970687;28;20034;-87
2022/11/15 02:44:20;;;;;;;27.13;16.10;;;7.70;99.90;;;;;;4969303;28;20046;-89
2022/11/15 02:50:00;;;;;;;29.70;16.80;;;8.70;99.90;;;;;;4974388;28;20043;-88
2022/11/15 02:52:26;;;;;;;27.98;16.55;;;7.80;99.90;;;;;;4951372;28;20053;-88
2022/11/15 02:54:57;;;;;;;31.30;16.42;;;8.80;99.90;;;;;;4957231;28;20050;-87
2022/11/15 02:57:51;;;;;;;31.35;17.38;;;8.60;99.90;;;;;;4973208;28;20042;-87
2022/11/15 03:00:20;;;;;;;;;;;7.80;99.90;;;;;;4958067;28;20046;-88
2022/11/15 03:03:01;;;;;;;30.75;15.93;;;7.80;99.90;;;;;;4973186;28;20013;-88
2022/11/15 03:05:35;;;;;;;31.98;16.60;;;7.80;99.90;;;;;;4957703;28;20214;-87
2022/11/15 03:08:20;;;;;;;32.15;17.30;;;9.00;99.90;;;;;;4974412;28;20080;-87
2022/11/15 03:10:56;;;;;;;29.02;15.70;;;7.80;99.90;;;;;;4963199;28;20394;-88
2022/11/15 03:13:27;;;;;;;30.08;17.15;;;7.80;99.90;;;;;;4957151;28;20199;-88
2022/11/15 03:16:09;;;;;;;30.35;15.93;;;7.80;99.90;;;;;;4973497;28;20038;-88
2022/11/15 03:18:40;;;;;;;29.00;16.35;;;7.90;99.90;;;;;;4970481;28;20499;-88
2022/11/15 03:21:08;;;;;;;28.15;16.65;;;7.90;99.90;;;;;;4973228;28;20049;-89
2022/11/15 03:23:36;;;;;;;29.35;16.65;;;7.90;99.90;;;;;;4953487;28;20130;-88
2022/11/15 03:26:06;;;;;;;29.30;16.95;;;8.90;99.90;;;;;;4954434;28;20046;-87
2022/11/15 03:28:47;;;;;;;28.80;16.30;;;7.90;99.90;;;;;;4952622;28;20073;-87
2022/11/15 03:34:03;;;;;;;30.83;16.38;;;8.30;99.90;;;;;;4970834;28;20054;-88
2022/11/15 03:36:32;;;;;;;29.23;16.05;;;8.80;99.90;;;;;;4966825;28;20543;-88
2022/11/15 03:39:04;;;;;;;27.40;15.48;;;9.20;99.90;;;;;;4954628;28;20096;-87
2022/11/15 03:41:46;;;;;;;28.48;15.95;;;9.40;99.90;;;;;;4970151;28;20094;-87
2022/11/15 03:44:40;;;;;;;30.25;16.20;;;7.90;99.90;;;;;;4961412;28;20081;-87
2022/11/15 03:47:14;;;;;;;;;;;7.90;99.90;;;;;;4951575;28;20058;-87
2022/11/15 03:49:46;;;;;;;27.60;15.77;;;7.90;99.90;;;;;;4969938;28;19917;-87
2022/11/15 03:52:12;;;;;;;28.52;16.23;;;7.90;99.90;;;;;;4969657;28;20461;-88
2022/11/15 03:54:48;;;;;;;31.02;16.15;;;7.90;99.90;;;;;;4954024;28;20499;-87
2022/11/15 03:57:14;;;;;;;29.30;16.63;;;8.20;99.90;;;;;;4970144;28;20047;-88
2022/11/15 03:59:40;;;;;;;31.02;17.00;;;7.90;99.90;;;;;;4937813;28;20094;-86
2022/11/15 04:02:05;;;;;;;29.13;16.02;;;8.80;99.90;;;;;;4953578;28;20054;-87
2022/11/15 04:04:31;;;;;;;29.65;16.40;;;8.00;99.90;;;;;;4953997;28;20046;-86
2022/11/15 04:06:57;;;;;;;31.50;17.33;;;9.20;99.90;;;;;;4969772;28;20057;-87
2022/11/15 04:09:22;;;;;;;30.65;17.13;;;8.00;99.90;;;;;;4948344;28;20122;-88
2022/11/15 04:11:48;;;;;;;32.50;17.25;;;9.10;99.90;;;;;;4936513;28;21066;-88
2022/11/15 04:14:13;;;;;;;30.23;16.90;;;8.00;99.90;;;;;;4937745;28;20047;-88
2022/11/15 04:16:39;;;;;;;31.45;17.88;;;9.60;99.90;;;;;;4937980;28;20186;-87
2022/11/15 04:24:33;;;;;;;33.28;17.35;;;8.20;99.90;;;;;;4966303;28;20054;-88
2022/11/15 04:26:59;;;;;;;35.17;17.73;;;8.10;99.90;;;;;;4953285;28;20510;-88
2022/11/15 04:29:36;;;;;;;36.58;18.58;;;8.10;99.90;;;;;;4941992;28;20500;-88
2022/11/15 04:32:04;;;;;;;37.85;18.27;;;9.50;99.90;;;;;;4924123;28;20039;-87
2022/11/15 04:34:30;;;;;;;41.03;19.73;;;8.10;99.90;;;;;;4953159;28;20628;-87
2022/11/15 04:37:14;;;;;;;38.15;17.88;;;8.10;99.90;;;;;;4968622;28;20072;-87
2022/11/15 04:39:41;;;;;;;41.08;19.42;;;8.10;99.90;;;;;;4940142;28;20046;-87
2022/11/15 04:42:07;;;;;;;36.60;19.13;;;8.10;99.90;;;;;;4952639;28;20034;-87
2022/11/15 04:44:33;;;;;;;38.28;18.23;;;8.70;99.90;;;;;;4952407;28;20070;-88
2022/11/15 04:46:58;;;;;;;35.88;18.35;;;8.10;99.90;;;;;;4934227;29;20133;-88
2022/11/15 04:49:24;;;;;;;40.53;18.77;;;9.00;99.90;;;;;;4937413;28;20046;-87
2022/11/15 04:51:50;;;;;;;33.00;17.70;;;9.50;99.90;;;;;;4953076;28;20102;-88
2022/11/15 04:54:16;;;;;;;43.08;19.77;;;8.20;99.90;;;;;;4935741;28;20094;-88
2022/11/15 04:56:42;;;;;;;40.05;19.48;;;8.20;99.90;;;;;;4966135;28;20093;-87
2022/11/15 04:59:08;;;;;;;40.42;19.90;;;8.20;99.90;;;;;;4965647;28;20141;-87
2022/11/15 05:01:33;;;;;;;45.55;20.45;;;8.20;99.90;;;;;;4956586;28;20050;-87
2022/11/15 05:06:43;;;;;;;37.13;19.83;;;8.20;99.90;;;;;;4954452;28;20046;-88
2022/11/15 05:09:08;;;;;;;38.58;19.70;;;8.20;99.90;;;;;;4972471;28;20045;-86
2022/11/15 05:11:34;;;;;;;40.58;20.85;;;8.20;99.90;;;;;;4919052;28;20039;-88
2022/11/15 05:14:00;;;;;;;40.78;20.33;;;8.20;99.90;;;;;;4956626;28;20054;-88
2022/11/15 05:16:25;;;;;;;41.55;21.38;;;8.30;99.90;;;;;;4956839;28;20455;-87
2022/11/15 05:18:52;;;;;;;43.35;20.60;;;8.30;99.90;;;;;;4950623;28;20051;-88
2022/11/15 05:21:18;;;;;;;44.38;20.25;;;8.30;99.90;;;;;;4955237;28;20121;-87
2022/11/15 05:23:44;;;;;;;39.25;21.27;;;9.60;99.90;;;;;;4955469;28;20141;-87
2022/11/15 05:26:10;;;;;;;41.55;21.60;;;8.80;99.90;;;;;;4950485;28;20043;-87
2022/11/15 05:28:37;;;;;;;45.55;21.88;;;8.30;99.90;;;;;;4972484;28;20034;-88
2022/11/15 05:31:05;;;;;;;50.72;23.83;;;9.10;99.90;;;;;;4940266;28;20039;-88
2022/11/15 05:33:31;;;;;;;46.83;22.02;;;8.40;99.90;;;;;;4953373;28;20073;-88
2022/11/15 05:36:21;;;;;;;47.08;23.10;;;8.40;99.90;;;;;;4971767;28;20074;-87
2022/11/15 05:38:48;;;;;;;51.80;23.45;;;8.40;99.90;;;;;;4954768;28;20090;-87
2022/11/15 05:41:18;;;;;;;49.05;23.48;;;8.70;99.90;;;;;;4970272;28;20039;-87
2022/11/15 05:43:45;;;;;;;53.70;23.40;;;9.10;99.90;;;;;;4967576;28;20042;-87
2022/11/15 05:46:13;;;;;;;49.78;24.48;;;8.60;99.90;;;;;;4967953;28;20149;-87
2022/11/15 05:48:41;;;;;;;50.58;24.10;;;9.90;99.90;;;;;;4954373;28;20050;-87
2022/11/15 05:51:07;;;;;;;56.00;24.77;;;8.60;99.90;;;;;;4950161;28;20073;-87
2022/11/15 05:53:34;;;;;;;52.80;24.92;;;8.50;99.90;;;;;;4934490;28;20448;-88
2022/11/15 05:56:00;;;;;;;61.03;26.20;;;8.80;99.90;;;;;;4970577;28;20062;-88
2022/11/15 05:58:25;;;;;;;53.30;25.23;;;8.50;99.90;;;;;;4968873;28;20189;-88
2022/11/15 06:00:51;;;;;;;58.90;25.15;;;8.50;99.90;;;;;;4935709;28;20035;-87
2022/11/15 06:03:17;;;;;;;62.42;26.30;;;9.90;99.90;;;;;;4935565;29;20035;-88
2022/11/15 06:05:42;;;;;;;54.30;25.42;;;9.50;99.90;;;;;;4937868;28;20053;-87
2022/11/15 06:08:08;;;;;;;72.18;28.00;;;8.60;99.90;;;;;;4937420;28;20039;-88
2022/11/15 06:10:34;;;;;;;70.18;27.98;;;8.60;99.90;;;;;;4922259;28;20093;-87
2022/11/15 06:13:01;;;;;;;55.83;27.05;;;8.80;99.90;;;;;;4951746;28;20047;-88
2022/11/15 06:15:27;;;;;;;65.55;28.02;;;10.30;99.90;;;;;;4955449;28;20047;-87
2022/11/15 06:17:57;;;;;;;66.32;28.77;;;8.70;99.90;;;;;;4952683;28;20050;-88
2022/11/15 06:20:23;;;;;;;62.50;27.17;;;8.70;99.90;;;;;;4936735;28;20050;-89
2022/11/15 06:22:49;;;;;;;72.32;30.08;;;8.90;99.90;;;;;;4974661;28;20129;-88
2022/11/15 06:25:15;;;;;;;69.55;29.90;;;8.70;99.90;;;;;;4973279;28;20134;-88
2022/11/15 06:27:41;;;;;;;64.72;29.75;;;9.20;99.90;;;;;;4958721;28;20471;-87
2022/11/15 06:30:07;;;;;;;71.10;30.83;;;9.90;99.90;;;;;;4954994;28;20120;-87
2022/11/15 06:32:32;;;;;;;66.68;30.65;;;8.80;99.90;;;;;;4954176;28;20384;-88
2022/11/15 06:34:58;;;;;;;61.55;29.75;;;9.00;99.90;;;;;;4973654;28;20045;-88
2022/11/15 06:37:24;;;;;;;63.67;29.90;;;8.90;99.90;;;;;;4958628;28;20089;-88
2022/11/15 06:39:49;;;;;;;60.50;28.60;;;9.50;99.90;;;;;;4958432;28;20046;-88
2022/11/15 06:42:15;;;;;;;62.53;29.98;;;9.00;99.90;;;;;;4942914;28;20038;-88
2022/11/15 06:44:41;;;;;;;65.22;30.85;;;9.50;99.90;;;;;;4939547;28;20053;-88
2022/11/15 06:47:06;;;;;;;65.53;29.70;;;9.10;99.90;;;;;;4958473;28;20038;-88
2022/11/15 06:49:32;;;;;;;68.32;31.63;;;9.30;99.90;;;;;;4943113;28;20042;-88
2022/11/15 06:51:58;;;;;;;67.50;30.63;;;9.60;99.90;;;;;;4959086;28;20038;-88
2022/11/15 06:54:23;;;;;;;62.50;30.63;;;9.10;99.90;;;;;;4959326;28;20094;-88
2022/11/15 06:56:49;;;;;;;76.85;31.00;;;9.10;99.90;;;;;;4975086;28;20042;-87
2022/11/15 06:59:14;;;;;;;66.80;30.67;;;9.60;99.90;;;;;;4958676;28;20078;-89
2022/11/15 07:01:40;;;;;;;54.75;28.02;;;9.40;99.90;;;;;;4960650;28;20034;-88
2022/11/15 07:04:06;;;;;;;63.92;30.75;;;9.20;99.90;;;;;;4985526;28;20038;-88
2022/11/15 07:06:31;;;;;;;62.53;28.90;;;9.40;99.90;;;;;;4971549;28;20083;-86
2022/11/15 07:08:57;;;;;;;58.95;28.67;;;9.60;99.90;;;;;;4982440;28;20046;-85
2022/11/15 07:11:23;;;;;;;62.45;29.52;;;9.30;99.90;;;;;;4961902;28;20125;-84
2022/11/15 07:13:48;;;;;;;69.63;29.77;;;9.60;99.90;;;;;;4953118;28;20431;-85
2022/11/15 07:16:14;;;;;;;65.95;30.92;;;9.70;99.90;;;;;;4969596;28;20053;-84
2022/11/15 07:18:40;;;;;;;61.42;29.23;;;9.30;99.90;;;;;;4969695;28;20042;-84
2022/11/15 07:21:09;;;;;;;54.60;28.80;;;9.30;99.90;;;;;;4954500;28;20077;-84
2022/11/15 07:23:39;;;;;;;63.83;29.38;;;9.40;99.90;;;;;;4937858;29;20134;-87
2022/11/15 07:26:07;;;;;;;52.45;27.60;;;9.30;99.90;;;;;;4948428;28;20049;-86
2022/11/15 07:28:33;;;;;;;60.92;28.92;;;10.40;99.90;;;;;;4971192;28;20046;-85
2022/11/15 07:31:04;;;;;;;59.80;29.60;;;9.50;99.90;;;;;;4934465;29;20412;-86
2022/11/15 07:33:30;;;;;;;54.17;28.17;;;10.20;99.90;;;;;;4957404;28;20031;-87
2022/11/15 07:36:01;;;;;;;55.03;27.27;;;10.30;99.90;;;;;;4954330;28;20579;-87
2022/11/15 07:38:28;;;;;;;51.90;28.17;;;9.60;99.90;;;;;;4956404;28;20057;-84
2022/11/15 07:40:59;;;;;;;52.30;27.70;;;9.60;99.90;;;;;;4953225;28;20085;-87
2022/11/15 07:43:25;;;;;;;55.60;27.90;;;10.90;99.90;;;;;;4968514;28;20056;-84
2022/11/15 07:45:50;;;;;;;50.08;26.13;;;9.60;99.90;;;;;;4968303;28;20510;-87
2022/11/15 07:48:16;;;;;;;54.40;26.60;;;9.70;99.90;;;;;;4940544;28;20110;-86
2022/11/15 07:50:42;;;;;;;50.47;25.95;;;9.70;99.90;;;;;;4921379;28;20043;-87
2022/11/15 07:53:10;;;;;;;56.40;28.05;;;9.70;99.90;;;;;;4934769;28;20045;-86
2022/11/15 07:55:36;;;;;;;50.67;26.40;;;9.80;99.90;;;;;;4969855;28;20043;-86
2022/11/15 07:58:10;;;;;;;50.03;26.17;;;9.80;99.90;;;;;;4969420;28;20039;-86
2022/11/15 08:00:36;;;;;;;46.08;25.10;;;10.20;99.90;;;;;;4969071;28;20290;-88
2022/11/15 08:03:07;;;;;;;48.78;26.17;;;10.40;99.90;;;;;;4951386;28;20047;-87
2022/11/15 08:05:34;;;;;;;48.17;25.95;;;9.90;99.90;;;;;;4966943;28;20522;-88
2022/11/15 08:08:00;;;;;;;47.80;26.02;;;9.90;99.90;;;;;;4935312;28;20131;-85
2022/11/15 08:10:27;;;;;;;50.92;25.50;;;10.00;99.90;;;;;;4969024;28;20113;-86
2022/11/15 08:13:09;;;;;;;48.53;25.48;;;10.00;99.90;;;;;;4968703;28;20163;-87
2022/11/15 08:15:36;;;;;;;44.58;24.38;;;10.10;99.90;;;;;;4969673;28;20047;-85
2022/11/15 08:18:06;;;;;;;48.92;25.00;;;10.10;99.90;;;;;;4951461;28;20088;-85
2022/11/15 08:20:32;;;;;;;47.70;25.30;;;10.10;99.90;;;;;;4969047;28;20042;-87
2022/11/15 08:22:59;;;;;;;43.90;25.67;;;10.20;99.90;;;;;;4954001;28;20050;-87
2022/11/15 08:25:27;;;;;;;46.63;25.10;;;10.20;99.90;;;;;;4972969;28;20047;-87
2022/11/15 08:27:54;;;;;;;43.67;23.98;;;10.30;99.90;;;;;;4971761;28;20096;-86
2022/11/15 08:30:20;;;;;;;44.08;23.73;;;11.70;99.90;;;;;;4971302;28;20045;-86
2022/11/15 08:32:46;;;;;;;43.40;23.25;;;10.30;99.90;;;;;;4951608;28;20042;-87
2022/11/15 08:35:12;;;;;;;42.28;24.33;;;10.50;99.90;;;;;;4967045;28;20146;-86
2022/11/15 08:37:38;;;;;;;40.50;23.42;;;10.40;99.90;;;;;;4957469;28;20121;-86
2022/11/15 08:40:05;;;;;;;43.45;23.20;;;10.50;99.90;;;;;;4971224;28;20079;-85
2022/11/15 08:42:31;;;;;;;40.08;22.52;;;10.50;99.90;;;;;;4969604;28;20077;-86
2022/11/15 08:44:56;;;;;;;44.63;23.63;;;10.80;99.90;;;;;;4957741;28;20042;-86
2022/11/15 08:47:22;;;;;;;40.30;22.60;;;10.60;99.90;;;;;;4959201;28;20050;-86
2022/11/15 08:49:48;;;;;;;38.78;21.83;;;10.80;99.90;;;;;;4972690;28;20097;-86
2022/11/15 08:52:14;;;;;;;39.15;22.75;;;10.60;99.90;;;;;;4943055;28;20030;-86
2022/11/15 08:54:40;;;;;;;40.83;21.73;;;10.60;99.90;;;;;;4972283;28;20440;-87
2022/11/15 08:57:06;;;;;;;37.08;20.88;;;11.00;99.90;;;;;;4956642;28;20034;-87
2022/11/15 08:59:32;;;;;;;34.55;21.23;;;10.70;99.90;;;;;;4965416;28;20053;-86
2022/11/15 09:01:58;;;;;;;36.40;21.20;;;10.70;99.90;;;;;;4943859;28;20419;-85
2022/11/15 09:04:23;;;;;;;35.65;21.27;;;10.70;99.90;;;;;;4942834;28;20050;-85
2022/11/15 09:06:49;;;;;;;38.53;21.02;;;10.80;99.90;;;;;;4942675;28;20081;-86
2022/11/15 09:09:15;;;;;;;35.90;21.17;;;10.80;99.90;;;;;;4972792;28;20427;-87
2022/11/15 09:11:40;;;;;;;35.97;21.33;;;11.60;99.90;;;;;;4922981;28;20175;-89
2022/11/15 09:14:06;;;;;;;34.63;21.10;;;10.90;99.90;;;;;;4958699;28;20092;-87
2022/11/15 09:16:32;;;;;;;35.60;20.67;;;11.40;99.90;;;;;;4974676;28;20258;-87
2022/11/15 09:18:57;;;;;;;33.10;19.92;;;10.90;99.90;;;;;;4959462;28;20117;-87
2022/11/15 09:21:23;;;;;;;35.67;20.77;;;10.90;99.90;;;;;;4960183;28;20121;-87
2022/11/15 09:23:52;;;;;;;35.78;20.17;;;11.00;99.90;;;;;;4938069;28;20059;-86
2022/11/15 09:26:18;;;;;;;31.20;19.77;;;11.00;99.90;;;;;;4970971;28;20051;-87
2022/11/15 09:28:43;;;;;;;32.03;19.10;;;11.00;99.90;;;;;;4970850;28;20031;-85
2022/11/15 09:31:10;;;;;;;35.35;20.02;;;11.00;99.90;;;;;;4956534;28;20155;-86
2022/11/15 09:33:36;;;;;;;30.02;19.23;;;11.00;99.90;;;;;;4953664;28;20487;-85
2022/11/15 09:36:07;;;;;;;31.10;18.77;;;11.00;99.90;;;;;;4968739;28;20050;-85
2022/11/15 09:38:33;;;;;;;36.33;20.67;;;11.10;99.90;;;;;;4953417;28;20046;-86
2022/11/15 09:41:19;;;;;;;31.67;18.58;;;11.10;99.90;;;;;;4970480;28;20077;-86
2022/11/15 09:44:12;;;;;;;32.63;19.95;;;11.10;99.90;;;;;;4955454;28;20054;-86
2022/11/15 09:46:55;;;;;;;32.78;20.35;;;11.10;99.90;;;;;;4970246;28;20039;-86
2022/11/15 09:49:22;;;;;;;29.35;18.13;;;11.20;99.90;;;;;;4944388;28;20043;-85
2022/11/15 09:51:50;;;;;;;29.52;18.60;;;11.30;99.90;;;;;;4970985;28;20043;-85
2022/11/15 09:54:37;;;;;;;29.92;18.83;;;11.30;99.90;;;;;;4970394;28;20650;-88
2022/11/15 09:57:18;;;;;;;28.10;18.63;;;11.60;99.90;;;;;;4979154;28;20047;-87
2022/11/15 10:00:13;;;;;;;29.90;18.50;;;11.40;99.90;;;;;;4953963;28;20550;-85
2022/11/15 10:03:06;;;;;;;29.77;18.88;;;11.50;99.90;;;;;;4966907;28;20101;-90
2022/11/15 10:05:47;;;;;;;32.88;19.02;;;11.50;99.90;;;;;;4950447;28;20042;-89
2022/11/15 10:08:15;;;;;;;31.75;19.08;;;11.80;99.90;;;;;;4971523;28;20043;-88
2022/11/15 10:10:48;;;;;;;30.55;19.35;;;11.60;99.90;;;;;;4972407;28;20443;-89
2022/11/15 10:13:24;;;;;;;26.17;17.27;;;11.60;99.90;;;;;;4971573;28;20043;-90
2022/11/15 10:15:51;;;;;;;30.00;18.40;;;11.70;99.90;;;;;;4958878;28;20050;-89
2022/11/15 10:19:11;;;;;;;27.33;18.10;;;12.40;99.90;;;;;;4958493;28;20047;-89
2022/11/15 10:21:55;;;;;;;27.98;17.50;;;11.60;99.90;;;;;;4966520;28;20149;-89
2022/11/15 10:24:29;;;;;;;29.08;18.63;;;11.50;99.90;;;;;;4955689;28;20066;-87
2022/11/15 10:26:56;;;;;;;26.70;18.83;;;11.50;99.90;;;;;;4952001;28;20038;-87
2022/11/15 10:29:23;;;;;;;28.50;17.45;;;11.50;99.90;;;;;;4926281;29;20032;-87
2022/11/15 10:31:49;;;;;;;27.67;17.75;;;11.50;99.90;;;;;;4951436;28;20043;-87
2022/11/15 10:34:21;;;;;;;26.88;17.63;;;11.60;99.90;;;;;;4955378;28;20054;-88
2022/11/15 10:36:55;;;;;;;28.40;18.58;;;11.50;99.90;;;;;;4951065;28;20521;-86
2022/11/15 10:39:22;;;;;;;26.52;17.58;;;11.50;99.90;;;;;;4954915;28;20174;-88
2022/11/15 10:41:47;;;;;;;26.30;17.85;;;11.50;99.90;;;;;;4938909;28;20130;-88
2022/11/15 10:44:16;;;;;;;29.92;17.80;;;11.60;99.90;;;;;;4939193;28;20197;-88
2022/11/15 10:46:45;;;;;;;26.10;17.63;;;11.60;99.90;;;;;;4954307;28;20043;-88
2022/11/15 10:49:18;;;;;;;26.58;17.20;;;11.80;99.90;;;;;;4955258;28;20286;-87
2022/11/15 10:51:48;;;;;;;25.98;17.05;;;11.60;99.90;;;;;;4971244;28;20050;-87
2022/11/15 10:54:23;;;;;;;28.42;17.77;;;11.60;99.90;;;;;;4953781;28;20034;-87
2022/11/15 10:56:53;;;;;;;27.40;18.10;;;11.60;99.90;;;;;;4951377;28;20034;-87
2022/11/15 10:59:27;;;;;;;28.98;18.58;;;11.60;99.90;;;;;;4970840;28;20516;-86
2022/11/15 11:01:53;;;;;;;28.50;17.98;;;11.60;99.90;;;;;;4969102;28;20046;-87
2022/11/15 11:04:19;;;;;;;25.95;17.63;;;11.60;99.90;;;;;;4954940;28;20054;-89
2022/11/15 11:06:56;;;;;;;29.27;18.80;;;11.60;99.90;;;;;;4937419;28;20093;-85
2022/11/15 11:09:32;;;;;;;27.17;17.77;;;11.60;99.90;;;;;;4970393;28;20173;-85
2022/11/15 11:11:58;;;;;;;28.88;18.17;;;11.60;99.90;;;;;;4966976;28;20038;-85
2022/11/15 11:14:33;;;;;;;27.83;18.63;;;12.00;99.90;;;;;;4953994;28;20061;-84
2022/11/15 11:17:01;;;;;;;26.75;18.48;;;11.70;99.90;;;;;;4968095;28;20092;-85
2022/11/15 11:19:45;;;;;;;29.58;19.52;;;11.70;99.90;;;;;;4954163;28;20046;-86
2022/11/15 11:22:27;;;;;;;28.33;19.55;;;11.70;99.90;;;;;;4952069;28;20047;-89
2022/11/15 11:25:17;;;;;;;29.58;19.63;;;11.80;99.90;;;;;;4951490;28;20579;-88
2022/11/15 11:28:18;;;;;;;30.30;20.10;;;11.80;99.90;;;;;;4970528;28;20050;-87
2022/11/15 11:30:58;;;;;;;28.67;19.75;;;11.80;99.90;;;;;;4965589;28;20047;-87
2022/11/15 11:33:32;;;;;;;30.08;19.83;;;11.90;99.90;;;;;;4953171;28;20047;-87
2022/11/15 11:36:17;;;;;;;30.67;20.63;;;11.90;99.90;;;;;;4941738;28;20085;-87
2022/11/15 11:39:21;;;;;;;28.67;19.58;;;12.60;99.90;;;;;;4943745;28;20071;-87
2022/11/15 11:42:17;;;;;;;28.35;19.48;;;12.00;99.90;;;;;;4954712;28;20439;-88
2022/11/15 11:44:52;;;;;;;27.77;20.30;;;12.10;99.90;;;;;;4953238;28;20046;-87
2022/11/15 11:47:24;;;;;;;29.83;19.23;;;12.20;99.90;;;;;;4951050;29;20047;-88
2022/11/15 11:50:01;;;;;;;28.75;20.13;;;12.30;99.90;;;;;;4969414;28;20117;-87
2022/11/15 11:52:32;;;;;;;27.48;19.38;;;12.50;99.90;;;;;;4954430;28;20391;-87
2022/11/15 11:55:01;;;;;;;25.85;18.08;;;12.60;99.90;;;;;;4945133;28;20046;-87
2022/11/15 11:57:43;;;;;;;22.95;17.23;;;12.70;99.90;;;;;;4951608;28;20418;-88
2022/11/15 12:00:23;;;;;;;24.15;16.58;;;12.80;99.90;;;;;;4948987;28;20054;-89
2022/11/15 12:03:08;;;;;;;22.60;16.50;;;12.80;99.90;;;;;;4952078;28;20062;-88
2022/11/15 12:05:51;;;;;;;23.88;16.60;;;12.80;99.90;;;;;;4969357;28;20039;-88
2022/11/15 12:08:43;;;;;;;;;;;12.80;99.90;;;;;;4967978;28;20050;-88
2022/11/15 12:11:12;;;;;;;20.15;15.35;;;12.90;99.90;;;;;;4953716;28;19918;-88
2022/11/15 12:13:38;;;;;;;18.95;14.35;;;12.90;99.90;;;;;;4957834;28;20043;-88
2022/11/15 12:16:23;;;;;;;19.02;13.38;;;12.90;99.90;;;;;;4957714;28;20488;-88
2022/11/15 12:18:53;;;;;;;16.75;11.75;;;12.90;99.90;;;;;;4970089;28;20156;-87
2022/11/15 12:21:25;;;;;;;17.13;11.05;;;12.80;99.90;;;;;;4954410;28;20118;-87
2022/11/15 12:23:59;;;;;;;16.50;10.10;;;12.80;99.90;;;;;;4968359;28;20493;-87
2022/11/15 12:26:30;;;;;;;14.32;8.75;;;12.70;99.90;;;;;;4960943;28;20130;-86
2022/11/15 12:29:04;;;;;;;12.88;7.47;;;12.70;99.90;;;;;;4972768;28;20042;-87
2022/11/15 12:31:48;;;;;;;13.02;7.18;;;12.60;99.90;;;;;;4971347;28;20117;-88
2022/11/15 12:34:20;;;;;;;12.80;6.80;;;12.60;99.90;;;;;;4972693;28;20520;-86
2022/11/15 12:36:46;;;;;;;13.95;6.40;;;12.60;99.90;;;;;;4973387;28;20546;-87
2022/11/15 12:39:13;;;;;;;13.35;5.97;;;12.60;99.90;;;;;;4971468;28;20467;-88
2022/11/15 12:41:44;;;;;;;13.20;6.25;;;12.60;99.90;;;;;;4956548;28;20047;-87
2022/11/15 12:44:39;;;;;;;11.45;5.38;;;12.60;99.90;;;;;;4956232;28;20038;-87
2022/11/15 12:47:26;;;;;;;10.88;5.10;;;12.80;99.90;;;;;;4943034;28;20508;-87
2022/11/15 12:49:52;;;;;;;12.18;5.18;;;12.60;99.90;;;;;;4954471;28;20038;-85
2022/11/15 12:52:19;;;;;;;11.18;4.82;;;12.60;99.90;;;;;;4972868;28;20522;-86
2022/11/15 12:54:53;;;;;;;10.63;4.47;;;12.60;99.90;;;;;;4947747;28;20074;-86
2022/11/15 12:57:19;;;;;;;12.00;4.88;;;12.50;99.90;;;;;;4966247;28;20061;-85
2022/11/15 12:59:58;;;;;;;11.13;4.57;;;12.50;99.90;;;;;;4967497;28;20035;-86
2022/11/15 13:02:37;;;;;;;9.25;4.40;;;12.40;99.90;;;;;;4952819;28;20481;-86
2022/11/15 13:05:15;;;;;;;12.82;4.38;;;12.40;99.90;;;;;;4956548;28;20101;-88
2022/11/15 13:07:40;;;;;;;11.13;4.65;;;12.40;99.90;;;;;;4972994;28;20389;-86